Time;durP1;ratioP1;P1;durP2;ratioP2;P2;SDS_P1;SDS_P2;PMS_P1;PMS_P2;Temp;Humidity;BMP_temperature;BMP_pressure;BME280_temperature;BME280_humidity;BME280_pressure;Samples;Min_cycle;Max_cycle;Signal;HPM_P1;HPM_P2
2023/06/07 00:00:38;;;;;;;5.78;4.22;;;;;;;;;;5064497;28;41756;-30
2023/06/07 00:03:09;;;;;;;6.40;3.95;;;;;;;;;;5082137;28;44007;-30
2023/06/07 00:05:38;;;;;;;7.55;4.13;;;;;;;;;;5081609;28;40506;-32
2023/06/07 00:08:07;;;;;;;5.90;3.90;;;;;;;;;;5084762;28;43576;-34
2023/06/07 00:10:36;;;;;;;7.30;4.18;;;;;;;;;;5085407;28;39748;-30
2023/06/07 00:13:04;;;;;;;7.05;3.63;;;;;;;;;;5070006;28;42721;-31
2023/06/07 00:15:32;;;;;;;6.05;3.63;;;;;;;;;;5066126;28;43637;-31
2023/06/07 00:18:00;;;;;;;5.60;3.63;;;;;;;;;;5070636;28;41556;-31
2023/06/07 00:20:32;;;;;;;7.60;4.45;;;;;;;;;;5083525;28;42823;-29
2023/06/07 00:23:01;;;;;;;7.63;4.50;;;;;;;;;;5084032;28;44755;-31
2023/06/07 00:25:30;;;;;;;6.00;4.03;;;;;;;;;;5082959;28;40978;-31
2023/06/07 00:27:58;;;;;;;5.32;4.05;;;;;;;;;;5084782;28;43186;-31
2023/06/07 00:30:25;;;;;;;5.57;3.72;;;;;;;;;;5059465;28;39712;-29
2023/06/07 00:32:53;;;;;;;5.57;3.75;;;;;;;;;;5077232;28;42957;-34
2023/06/07 00:35:22;;;;;;;6.93;4.32;;;;;;;;;;5065778;28;43749;-31
2023/06/07 00:37:51;;;;;;;6.72;4.00;;;;;;;;;;5069104;28;39656;-30
2023/06/07 00:40:19;;;;;;;7.90;4.05;;;;;;;;;;5086954;28;42645;-29
2023/06/07 00:42:47;;;;;;;8.07;3.90;;;;;;;;;;5088576;28;43563;-30
2023/06/07 00:45:15;;;;;;;6.57;4.28;;;;;;;;;;5087239;28;40083;-29
2023/06/07 00:47:43;;;;;;;5.95;4.25;;;;;;;;;;5079428;28;43668;-31
2023/06/07 00:50:13;;;;;;;7.80;4.13;;;;;;;;;;5079260;28;44381;-30
2023/06/07 00:52:42;;;;;;;7.43;4.00;;;;;;;;;;5070033;28;42519;-29
2023/06/07 00:55:11;;;;;;;7.13;4.13;;;;;;;;;;5086155;28;42971;-29
2023/06/07 00:57:40;;;;;;;7.78;4.22;;;;;;;;;;5088203;28;41382;-30
2023/06/07 01:00:13;;;;;;;5.35;3.78;;;;;;;;;;5087128;28;43392;-29
2023/06/07 01:02:41;;;;;;;6.40;3.35;;;;;;;;;;5067930;28;41730;-29
2023/06/07 01:05:11;;;;;;;7.32;4.00;;;;;;;;;;5068599;28;38848;-30
2023/06/07 01:07:39;;;;;;;7.35;4.13;;;;;;;;;;5087304;28;42780;-29
2023/06/07 01:10:08;;;;;;;6.38;4.15;;;;;;;;;;5069064;28;44601;-30
2023/06/07 01:12:37;;;;;;;6.07;3.78;;;;;;;;;;5087492;28;42972;-29
2023/06/07 01:15:06;;;;;;;8.40;4.18;;;;;;;;;;5087047;28;44658;-29
2023/06/07 01:17:40;;;;;;;6.88;4.00;;;;;;;;;;5087558;28;41225;-30
2023/06/07 01:20:09;;;;;;;4.97;3.65;;;;;;;;;;5084269;28;43020;-30
2023/06/07 01:22:37;;;;;;;5.78;3.92;;;;;;;;;;5072631;28;43689;-30
2023/06/07 01:25:07;;;;;;;6.28;3.90;;;;;;;;;;5068787;28;38915;-29
2023/06/07 01:27:37;;;;;;;6.43;4.00;;;;;;;;;;5069623;28;41264;-31
2023/06/07 01:30:07;;;;;;;4.00;3.20;;;;;;;;;;5053860;28;42599;-29
2023/06/07 01:32:37;;;;;;;8.50;3.97;;;;;;;;;;5066345;28;39255;-30
2023/06/07 01:35:05;;;;;;;6.13;3.63;;;;;;;;;;5086710;28;43386;-30
2023/06/07 01:37:33;;;;;;;6.50;3.97;;;;;;;;;;5068566;28;39926;-32
2023/06/07 01:40:05;;;;;;;8.32;3.65;;;;;;;;;;5068578;28;42184;-37
2023/06/07 01:42:34;;;;;;;6.57;4.00;;;;;;;;;;5086959;28;43743;-42
2023/06/07 01:45:02;;;;;;;5.20;3.95;;;;;;;;;;5086995;28;41762;-39
2023/06/07 01:47:30;;;;;;;8.82;3.88;;;;;;;;;;5086477;28;42490;-41
2023/06/07 01:49:58;;;;;;;6.18;3.47;;;;;;;;;;5085662;28;44690;-40
2023/06/07 01:52:27;;;;;;;6.35;3.85;;;;;;;;;;5087497;28;39938;-38
2023/06/07 01:54:55;;;;;;;5.95;3.40;;;;;;;;;;5087747;28;43923;-40
2023/06/07 01:57:27;;;;;;;6.25;3.60;;;;;;;;;;5085997;28;40198;-40
2023/06/07 02:00:01;;;;;;;6.63;3.92;;;;;;;;;;5068858;28;42359;-39
2023/06/07 02:02:44;;;;;;;7.50;3.80;;;;;;;;;;5086998;28;44819;-41
2023/06/07 02:05:12;;;;;;;6.38;3.33;;;;;;;;;;5082704;28;40479;-39
2023/06/07 02:07:43;;;;;;;4.80;3.63;;;;;;;;;;5084284;28;43576;-39
2023/06/07 02:10:11;;;;;;;6.03;4.03;;;;;;;;;;5086357;28;43580;-39
2023/06/07 02:12:39;;;;;;;6.13;3.42;;;;;;;;;;5086093;28;40371;-37
2023/06/07 02:15:09;;;;;;;8.48;3.95;;;;;;;;;;5086951;28;42165;-37
2023/06/07 02:17:47;;;;;;;7.13;3.40;;;;;;;;;;5061871;28;41695;-40
2023/06/07 02:20:17;;;;;;;6.57;3.80;;;;;;;;;;5048617;28;41454;-39
2023/06/07 02:22:45;;;;;;;5.18;3.38;;;;;;;;;;5049592;28;42962;-38
2023/06/07 02:25:13;;;;;;;5.72;3.70;;;;;;;;;;5066637;28;39258;-39
2023/06/07 02:27:40;;;;;;;8.38;3.88;;;;;;;;;;5086796;28;43217;-36
2023/06/07 02:30:10;;;;;;;5.15;3.35;;;;;;;;;;5067556;28;42935;-37
2023/06/07 02:32:39;;;;;;;6.07;3.80;;;;;;;;;;5086092;28;41216;-36
2023/06/07 02:35:08;;;;;;;5.90;3.65;;;;;;;;;;5086217;28;43837;-37
2023/06/07 02:37:36;;;;;;;6.72;3.58;;;;;;;;;;5086058;28;43781;-41
2023/06/07 02:40:08;;;;;;;6.85;3.63;;;;;;;;;;5086257;28;41236;-42
2023/06/07 02:42:37;;;;;;;5.63;3.67;;;;;;;;;;5083117;28;43386;-37
2023/06/07 02:45:05;;;;;;;5.05;3.15;;;;;;;;;;5086534;28;40823;-42
2023/06/07 02:47:34;;;;;;;5.47;3.67;;;;;;;;;;5066785;28;43197;-41
2023/06/07 02:50:03;;;;;;;5.22;3.40;;;;;;;;;;5067255;28;42531;-37
2023/06/07 02:52:33;;;;;;;4.88;3.40;;;;;;;;;;5067752;28;39281;-38
2023/06/07 02:55:01;;;;;;;4.30;3.03;;;;;;;;;;5085263;28;43434;-41
2023/06/07 02:57:29;;;;;;;6.75;3.55;;;;;;;;;;5066571;28;42892;-38
2023/06/07 02:59:58;;;;;;;4.47;3.50;;;;;;;;;;5067128;28;40832;-38
2023/06/07 03:02:37;;;;;;;6.60;3.35;;;;;;;;;;5055410;28;43380;-39
2023/06/07 03:05:05;;;;;;;7.65;3.25;;;;;;;;;;5086003;28;40922;-38
2023/06/07 03:07:34;;;;;;;6.40;3.53;;;;;;;;;;5066718;28;42262;-40
2023/06/07 03:10:05;;;;;;;6.38;3.60;;;;;;;;;;5067666;28;42213;-39
2023/06/07 03:12:33;;;;;;;4.82;3.28;;;;;;;;;;5052196;28;39400;-35
2023/06/07 03:15:01;;;;;;;7.88;3.97;;;;;;;;;;5066887;28;41456;-34
2023/06/07 03:17:31;;;;;;;6.95;4.00;;;;;;;;;;5066905;28;43160;-38
2023/06/07 03:20:04;;;;;;;5.30;3.05;;;;;;;;;;5066521;28;40003;-38
2023/06/07 03:22:36;;;;;;;6.68;3.58;;;;;;;;;;5052344;28;41492;-39
2023/06/07 03:25:08;;;;;;;6.22;3.20;;;;;;;;;;5050527;28;38894;-35
2023/06/07 03:27:37;;;;;;;7.15;3.00;;;;;;;;;;5074654;28;42051;-41
2023/06/07 03:30:20;;;;;;;6.10;3.53;;;;;;;;;;5054095;28;41994;-41
2023/06/07 03:32:49;;;;;;;6.47;3.72;;;;;;;;;;5067672;28;40788;-36
2023/06/07 03:35:19;;;;;;;5.78;3.72;;;;;;;;;;5084667;28;43824;-40
2023/06/07 03:37:48;;;;;;;6.70;3.78;;;;;;;;;;5066723;28;44531;-39
2023/06/07 03:40:21;;;;;;;5.60;3.45;;;;;;;;;;5066522;28;39095;-40
2023/06/07 03:42:50;;;;;;;5.43;3.33;;;;;;;;;;5066422;28;42221;-38
2023/06/07 03:45:21;;;;;;;8.77;3.67;;;;;;;;;;5066643;28;41737;-30
2023/06/07 03:47:51;;;;;;;5.18;2.92;;;;;;;;;;5067042;28;42951;-31
2023/06/07 03:50:21;;;;;;;6.47;3.30;;;;;;;;;;5064999;28;42790;-29
2023/06/07 03:52:49;;;;;;;7.30;3.55;;;;;;;;;;5085596;28;40638;-37
2023/06/07 03:55:19;;;;;;;5.22;3.42;;;;;;;;;;5066333;28;41528;-37
2023/06/07 03:57:48;;;;;;;6.35;3.47;;;;;;;;;;5065876;28;43063;-29
2023/06/07 04:00:17;;;;;;;5.97;3.42;;;;;;;;;;5066431;28;39519;-30
2023/06/07 04:02:53;;;;;;;5.85;3.17;;;;;;;;;;5066747;28;42485;-29
2023/06/07 04:05:24;;;;;;;6.53;3.42;;;;;;;;;;5065769;28;44180;-27
2023/06/07 04:07:53;;;;;;;5.43;3.50;;;;;;;;;;5067620;28;40127;-28
2023/06/07 04:10:21;;;;;;;7.38;3.45;;;;;;;;;;5064699;28;42584;-27
2023/06/07 04:12:49;;;;;;;5.03;2.88;;;;;;;;;;5087781;28;41237;-28
2023/06/07 04:15:16;;;;;;;7.13;3.53;;;;;;;;;;5069693;28;42283;-26
2023/06/07 04:17:45;;;;;;;6.47;3.38;;;;;;;;;;5069920;28;42512;-30
2023/06/07 04:20:14;;;;;;;5.38;3.53;;;;;;;;;;5069659;28;40173;-27
2023/06/07 04:22:45;;;;;;;6.50;3.28;;;;;;;;;;5053894;28;41495;-29
2023/06/07 04:25:16;;;;;;;5.97;3.42;;;;;;;;;;5049010;28;41954;-26
2023/06/07 04:27:47;;;;;;;5.93;3.00;;;;;;;;;;5057905;28;40570;-27
2023/06/07 04:30:15;;;;;;;4.75;3.17;;;;;;;;;;5049564;28;43043;-28
2023/06/07 04:32:44;;;;;;;8.80;3.75;;;;;;;;;;5049362;28;39630;-27
2023/06/07 04:35:14;;;;;;;4.88;3.08;;;;;;;;;;5062375;28;43446;-27
2023/06/07 04:37:46;;;;;;;7.07;3.40;;;;;;;;;;5050305;28;44922;-39
2023/06/07 04:40:17;;;;;;;7.72;3.63;;;;;;;;;;5048342;28;40153;-39
2023/06/07 04:42:55;;;;;;;6.63;3.35;;;;;;;;;;5049371;28;41518;-39
2023/06/07 04:45:31;;;;;;;5.97;3.42;;;;;;;;;;5049470;28;41934;-40
2023/06/07 04:47:59;;;;;;;7.78;3.60;;;;;;;;;;5049734;28;39626;-41
2023/06/07 04:50:29;;;;;;;9.05;3.20;;;;;;;;;;5049201;28;41367;-37
2023/06/07 04:53:02;;;;;;;6.32;3.20;;;;;;;;;;5067562;28;43593;-41
2023/06/07 04:55:34;;;;;;;7.22;3.20;;;;;;;;;;5067405;28;43183;-37
2023/06/07 04:58:03;;;;;;;8.05;3.88;;;;;;;;;;5051151;28;43590;-40
2023/06/07 05:00:31;;;;;;;5.93;2.92;;;;;;;;;;5047846;28;38680;-39
2023/06/07 05:03:06;;;;;;;6.38;2.92;;;;;;;;;;5049254;28;43102;-41
2023/06/07 05:05:34;;;;;;;5.07;3.25;;;;;;;;;;5049107;28;42005;-40
2023/06/07 05:08:04;;;;;;;4.47;3.25;;;;;;;;;;5066971;28;40255;-40
2023/06/07 05:10:32;;;;;;;6.15;3.05;;;;;;;;;;5049208;28;41306;-38
2023/06/07 05:13:02;;;;;;;6.22;3.20;;;;;;;;;;5048137;28;43529;-37
2023/06/07 05:15:31;;;;;;;6.43;2.90;;;;;;;;;;5066753;28;40258;-40
2023/06/07 05:18:00;;;;;;;7.07;3.30;;;;;;;;;;5049324;28;42652;-41
2023/06/07 05:20:29;;;;;;;6.28;3.03;;;;;;;;;;5048308;28;39210;-39
2023/06/07 05:22:59;;;;;;;7.53;3.15;;;;;;;;;;5051309;28;42369;-38
2023/06/07 05:25:29;;;;;;;5.60;3.05;;;;;;;;;;5068494;28;42893;-38
2023/06/07 05:27:57;;;;;;;8.63;3.65;;;;;;;;;;5058870;28;40559;-35
2023/06/07 05:30:41;;;;;;;9.85;3.70;;;;;;;;;;5068170;28;41562;-37
2023/06/07 05:33:09;;;;;;;11.07;3.75;;;;;;;;;;5068763;28;41887;-37
2023/06/07 05:35:37;;;;;;;11.30;3.42;;;;;;;;;;5069356;28;40460;-39
2023/06/07 05:38:05;;;;;;;10.93;4.20;;;;;;;;;;5047339;28;42826;-37
2023/06/07 05:40:35;;;;;;;12.20;3.63;;;;;;;;;;5066975;28;40432;-39
2023/06/07 05:43:04;;;;;;;13.27;4.15;;;;;;;;;;5063558;28;42255;-38
2023/06/07 05:45:31;;;;;;;11.05;3.92;;;;;;;;;;5069690;28;43171;-38
2023/06/07 05:47:59;;;;;;;11.57;4.18;;;;;;;;;;5053788;28;40283;-36
2023/06/07 05:50:30;;;;;;;10.45;3.70;;;;;;;;;;5052497;28;42047;-37
2023/06/07 05:52:59;;;;;;;8.60;3.47;;;;;;;;;;5082909;28;43124;-39
2023/06/07 05:55:27;;;;;;;11.60;3.45;;;;;;;;;;5065049;28;41294;-35
2023/06/07 05:57:57;;;;;;;10.57;3.95;;;;;;;;;;5066864;28;43414;-38
2023/06/07 06:00:25;;;;;;;9.73;3.80;;;;;;;;;;5067606;28;40140;-40
2023/06/07 06:02:53;;;;;;;6.20;3.42;;;;;;;;;;5066280;28;43374;-40
2023/06/07 06:05:27;;;;;;;10.68;3.80;;;;;;;;;;5065678;28;43764;-40
2023/06/07 06:07:55;;;;;;;11.95;3.42;;;;;;;;;;5063625;28;40023;-36
2023/06/07 06:10:23;;;;;;;14.80;4.00;;;;;;;;;;5065359;28;42502;-39
2023/06/07 06:12:51;;;;;;;15.23;3.83;;;;;;;;;;5073079;28;42914;-39
2023/06/07 06:15:20;;;;;;;17.50;4.53;;;;;;;;;;5072031;28;40845;-38
2023/06/07 06:17:51;;;;;;;17.23;4.55;;;;;;;;;;5065801;28;43728;-38
2023/06/07 06:20:19;;;;;;;17.63;4.63;;;;;;;;;;5062638;28;43207;-40
2023/06/07 06:22:47;;;;;;;12.70;4.72;;;;;;;;;;5067798;28;43040;-36
2023/06/07 06:25:15;;;;;;;22.63;5.00;;;;;;;;;;5080004;28;43304;-38
2023/06/07 06:27:42;;;;;;;17.00;4.90;;;;;;;;;;5077104;28;41038;-42
2023/06/07 06:30:11;;;;;;;20.25;4.70;;;;;;;;;;5066146;28;42896;-39
2023/06/07 06:32:40;;;;;;;46.55;6.95;;;;;;;;;;5065153;28;45041;-38
2023/06/07 06:35:08;;;;;;;60.25;8.68;;;;;;;;;;5069026;28;40307;-38
2023/06/07 06:37:36;;;;;;;94.75;10.48;;;;;;;;;;5065113;28;43224;-39
2023/06/07 06:40:05;;;;;;;75.07;9.40;;;;;;;;;;5064215;28;43745;-37
2023/06/07 06:42:33;;;;;;;51.33;8.80;;;;;;;;;;5066201;28;41073;-41
2023/06/07 06:45:24;;;;;;;39.75;6.85;;;;;;;;;;5064286;28;42653;-38
2023/06/07 06:47:55;;;;;;;37.33;5.72;;;;;;;;;;5066193;28;41439;-41
2023/06/07 06:50:23;;;;;;;25.08;6.43;;;;;;;;;;5061934;28;42569;-39
2023/06/07 06:53:00;;;;;;;20.80;5.25;;;;;;;;;;5065015;28;43706;-39
2023/06/07 06:55:29;;;;;;;20.98;5.00;;;;;;;;;;5065543;28;40517;-41
2023/06/07 06:57:56;;;;;;;28.60;5.93;;;;;;;;;;5069724;28;42572;-38
2023/06/07 07:00:25;;;;;;;30.45;5.55;;;;;;;;;;5067093;28;43876;-37
2023/06/07 07:02:54;;;;;;;28.27;5.82;;;;;;;;;;5079741;28;41386;-39
2023/06/07 07:05:22;;;;;;;40.50;6.35;;;;;;;;;;5065218;28;42818;-42
2023/06/07 07:07:50;;;;;;;28.23;5.32;;;;;;;;;;5065256;28;41751;-40
2023/06/07 07:10:18;;;;;;;29.08;5.20;;;;;;;;;;5064295;28;42828;-42
2023/06/07 07:12:48;;;;;;;31.70;6.07;;;;;;;;;;5046290;28;41745;-39
2023/06/07 07:15:16;;;;;;;30.70;5.78;;;;;;;;;;5064192;28;40225;-37
2023/06/07 07:17:46;;;;;;;41.75;6.75;;;;;;;;;;5064604;28;42765;-38
2023/06/07 07:20:17;;;;;;;33.83;6.30;;;;;;;;;;5070267;28;43574;-39
2023/06/07 07:22:46;;;;;;;31.63;6.30;;;;;;;;;;5064486;28;39958;-39
2023/06/07 07:25:14;;;;;;;35.30;5.80;;;;;;;;;;5084244;28;42724;-37
2023/06/07 07:27:42;;;;;;;21.38;5.05;;;;;;;;;;5074236;28;32860;-41
2023/06/07 07:30:10;;;;;;;24.13;5.70;;;;;;;;;;5083997;28;42290;-37
2023/06/07 07:32:38;;;;;;;26.13;5.78;;;;;;;;;;5070464;28;43319;-42
2023/06/07 07:35:07;;;;;;;22.55;5.07;;;;;;;;;;5064388;28;40311;-37
2023/06/07 07:37:38;;;;;;;21.90;4.97;;;;;;;;;;5063521;28;42675;-38
2023/06/07 07:40:08;;;;;;;17.00;4.70;;;;;;;;;;5064727;28;44897;-38
2023/06/07 07:42:37;;;;;;;18.63;4.53;;;;;;;;;;5064736;28;40211;-41
2023/06/07 07:45:05;;;;;;;21.02;5.20;;;;;;;;;;5063525;28;43746;-37
2023/06/07 07:47:34;;;;;;;16.30;5.18;;;;;;;;;;5064681;28;44241;-39
2023/06/07 07:50:04;;;;;;;18.88;5.07;;;;;;;;;;5063820;28;42198;-38
2023/06/07 07:52:32;;;;;;;24.08;5.70;;;;;;;;;;5078209;28;44744;-37
2023/06/07 07:55:04;;;;;;;21.50;4.85;;;;;;;;;;5071760;28;40044;-38
2023/06/07 07:57:32;;;;;;;14.00;5.00;;;;;;;;;;5079197;28;43224;-37
2023/06/07 08:00:01;;;;;;;14.20;3.95;;;;;;;;;;5083543;28;44408;-37
2023/06/07 08:02:39;;;;;;;11.63;4.22;;;;;;;;;;5070731;28;41629;-37
2023/06/07 08:05:08;;;;;;;10.65;4.05;;;;;;;;;;5083620;28;43501;-40
2023/06/07 08:07:36;;;;;;;13.73;4.07;;;;;;;;;;5051401;28;42188;-38
2023/06/07 08:10:06;;;;;;;9.43;4.18;;;;;;;;;;5083532;28;40368;-38
2023/06/07 08:12:34;;;;;;;11.20;4.28;;;;;;;;;;5081306;28;43430;-36
2023/06/07 08:15:02;;;;;;;10.13;3.88;;;;;;;;;;5065065;28;39951;-40
2023/06/07 08:17:30;;;;;;;8.00;3.88;;;;;;;;;;5082749;28;43094;-26
2023/06/07 08:19:58;;;;;;;10.38;3.85;;;;;;;;;;5083265;28;43398;-27
2023/06/07 08:22:26;;;;;;;17.00;4.57;;;;;;;;;;5083283;28;41007;-26
2023/06/07 08:24:54;;;;;;;23.60;5.35;;;;;;;;;;5065657;28;43203;-28
2023/06/07 08:27:23;;;;;;;20.40;5.07;;;;;;;;;;5075724;28;44127;-27
2023/06/07 08:29:51;;;;;;;18.08;5.20;;;;;;;;;;5076842;28;40335;-28
2023/06/07 08:32:21;;;;;;;17.65;4.70;;;;;;;;;;5081262;28;43616;-29
2023/06/07 08:34:49;;;;;;;18.90;4.88;;;;;;;;;;5084118;28;41107;-28
2023/06/07 08:37:17;;;;;;;13.48;4.82;;;;;;;;;;5079550;28;42858;-29
2023/06/07 08:39:46;;;;;;;13.52;4.47;;;;;;;;;;5081464;28;43239;-30
2023/06/07 08:42:14;;;;;;;12.88;4.60;;;;;;;;;;5081803;28;41089;-28
2023/06/07 08:44:44;;;;;;;15.18;4.50;;;;;;;;;;5081845;28;42998;-27
2023/06/07 08:47:12;;;;;;;16.35;5.22;;;;;;;;;;5081451;28;43968;-27
2023/06/07 08:49:40;;;;;;;23.85;4.80;;;;;;;;;;5082640;28;40229;-29
2023/06/07 08:52:08;;;;;;;26.42;5.55;;;;;;;;;;5081179;28;42733;-29
2023/06/07 08:54:44;;;;;;;20.13;5.32;;;;;;;;;;5072113;28;43128;-28
2023/06/07 08:57:15;;;;;;;16.23;4.88;;;;;;;;;;5082505;28;42663;-30
2023/06/07 08:59:45;;;;;;;28.95;6.38;;;;;;;;;;5078017;28;44544;-30
2023/06/07 09:02:13;;;;;;;65.65;17.38;;;;;;;;;;5081968;28;39908;-28
2023/06/07 09:04:41;;;;;;;114.53;28.63;;;;;;;;;;5084899;28;42725;-26
2023/06/07 09:07:09;;;;;;;131.00;39.92;;;;;;;;;;5081975;28;43935;-26
2023/06/07 09:09:38;;;;;;;110.68;38.47;;;;;;;;;;5078002;28;41114;-27
2023/06/07 09:12:06;;;;;;;62.20;21.98;;;;;;;;;;5081469;28;42637;-26
2023/06/07 09:14:34;;;;;;;54.92;14.57;;;;;;;;;;5075336;28;43705;-27
2023/06/07 09:17:04;;;;;;;46.63;11.40;;;;;;;;;;5081249;28;40675;-27
2023/06/07 09:19:35;;;;;;;70.72;12.52;;;;;;;;;;5082350;28;44000;-26
2023/06/07 09:22:03;;;;;;;51.15;10.63;;;;;;;;;;5080227;28;41433;-25
2023/06/07 09:24:31;;;;;;;53.25;9.23;;;;;;;;;;5083629;28;42826;-26
2023/06/07 09:27:00;;;;;;;36.53;7.88;;;;;;;;;;5079686;28;43417;-28
2023/06/07 09:29:29;;;;;;;22.60;7.45;;;;;;;;;;5080471;28;40007;-26
2023/06/07 09:31:59;;;;;;;31.58;7.47;;;;;;;;;;5076927;28;42944;-26
2023/06/07 09:34:30;;;;;;;26.42;7.10;;;;;;;;;;5077527;28;44484;-25
2023/06/07 09:36:58;;;;;;;32.85;6.88;;;;;;;;;;5076412;28;41216;-26
2023/06/07 09:39:27;;;;;;;23.50;5.78;;;;;;;;;;5071582;28;44144;-26
2023/06/07 09:41:55;;;;;;;27.25;6.65;;;;;;;;;;5079143;28;40301;-26
2023/06/07 09:44:24;;;;;;;28.50;6.57;;;;;;;;;;5080247;28;42876;-26
2023/06/07 10:06:38;;;;;;;21.75;5.72;;;;;;;;;;5063156;28;41812;-25
2023/06/07 10:20:52;;;;;;;29.67;5.55;;;;;;;;;;5042118;28;40173;-26
2023/06/07 10:23:26;;;;;;;14.05;5.13;;;;;;;;;;5041754;28;43305;-27
2023/06/07 10:25:59;;;;;;;17.55;5.30;;;;;;;;;;5036106;28;44471;-26
2023/06/07 10:28:30;;;;;;;28.60;6.13;;;;;;;;;;5039007;28;40888;-26
2023/06/07 10:31:03;;;;;;;40.03;12.02;;;;;;;;;;5047453;28;42835;-33
2023/06/07 10:33:31;;;;;;;65.93;17.05;;;;;;;;;;5035456;28;43082;-31
2023/06/07 10:35:59;;;;;;;54.80;14.63;;;;;;;;;;5039096;28;43037;-25
2023/06/07 10:38:28;;;;;;;57.20;14.02;;;;;;;;;;5035921;28;44496;-26
2023/06/07 10:40:57;;;;;;;42.72;12.13;;;;;;;;;;5035660;28;41479;-27
2023/06/07 10:43:26;;;;;;;34.15;10.38;;;;;;;;;;5037288;28;43306;-26
2023/06/07 10:46:09;;;;;;;29.33;8.57;;;;;;;;;;5037362;28;44565;-25
2023/06/07 10:48:39;;;;;;;22.65;7.55;;;;;;;;;;5043402;28;40824;-27
2023/06/07 10:51:07;;;;;;;23.30;7.40;;;;;;;;;;5037730;28;42431;-27
2023/06/07 10:53:55;;;;;;;24.83;6.88;;;;;;;;;;5038995;28;42896;-26
2023/06/07 10:56:27;;;;;;;17.40;6.60;;;;;;;;;;5033406;28;41201;-27
2023/06/07 10:58:55;;;;;;;15.98;6.32;;;;;;;;;;5049371;28;43112;-28
2023/06/07 11:01:23;;;;;;;12.43;5.82;;;;;;;;;;5052298;28;40653;-26
2023/06/07 11:03:52;;;;;;;18.35;6.57;;;;;;;;;;5043556;28;43686;-25
2023/06/07 11:06:20;;;;;;;16.63;5.47;;;;;;;;;;5040320;28;42096;-26
2023/06/07 11:08:49;;;;;;;11.75;5.15;;;;;;;;;;5050232;28;40175;-26
2023/06/07 11:11:32;;;;;;;12.10;5.20;;;;;;;;;;5040902;28;43202;-27
2023/06/07 11:14:13;;;;;;;12.25;4.90;;;;;;;;;;5034931;28;44371;-27
2023/06/07 11:16:41;;;;;;;10.93;4.85;;;;;;;;;;5037581;28;41348;-25
2023/06/07 11:19:14;;;;;;;13.57;5.53;;;;;;;;;;5051864;28;42707;-26
2023/06/07 11:22:07;;;;;;;19.63;5.75;;;;;;;;;;5063662;28;40665;-26
2023/06/07 11:24:36;;;;;;;15.65;4.97;;;;;;;;;;5055219;28;42663;-27
2023/06/07 11:27:09;;;;;;;12.25;4.63;;;;;;;;;;5062268;28;43362;-26
2023/06/07 11:29:39;;;;;;;12.98;5.28;;;;;;;;;;5068113;28;42342;-26
2023/06/07 11:32:09;;;;;;;19.88;5.65;;;;;;;;;;5063535;28;42463;-27
2023/06/07 11:34:37;;;;;;;21.15;5.30;;;;;;;;;;5068764;28;43617;-24
2023/06/07 11:37:06;;;;;;;22.58;5.50;;;;;;;;;;5064151;28;40438;-23
2023/06/07 11:39:34;;;;;;;23.60;6.15;;;;;;;;;;5074628;28;42410;-25
2023/06/07 11:42:02;;;;;;;27.38;5.55;;;;;;;;;;5065516;28;43981;-26
2023/06/07 11:44:30;;;;;;;21.63;5.30;;;;;;;;;;5056428;28;43229;-25
2023/06/07 11:47:02;;;;;;;24.83;5.70;;;;;;;;;;5073869;28;44442;-26
2023/06/07 11:49:31;;;;;;;15.35;6.25;;;;;;;;;;5062978;28;40527;-25
2023/06/07 11:51:59;;;;;;;27.95;6.68;;;;;;;;;;5066776;28;42762;-25
2023/06/07 11:54:27;;;;;;;33.92;6.57;;;;;;;;;;5072389;28;44000;-25
2023/06/07 11:56:55;;;;;;;34.17;7.38;;;;;;;;;;5064945;28;41036;-26
2023/06/07 11:59:23;;;;;;;40.88;6.82;;;;;;;;;;5065369;28;43025;-28
2023/06/07 12:01:51;;;;;;;33.70;6.90;;;;;;;;;;5072612;28;43376;-23
2023/06/07 12:04:21;;;;;;;29.63;6.38;;;;;;;;;;5069047;28;42604;-23
2023/06/07 12:06:49;;;;;;;29.35;6.00;;;;;;;;;;5067930;28;44356;-23
2023/06/07 12:09:19;;;;;;;27.30;6.13;;;;;;;;;;5076115;28;40438;-24
2023/06/07 12:11:47;;;;;;;36.50;6.60;;;;;;;;;;5060596;28;42835;-24
2023/06/07 12:14:31;;;;;;;27.38;6.85;;;;;;;;;;5061280;28;44591;-23
2023/06/07 12:17:00;;;;;;;20.13;5.65;;;;;;;;;;5052920;28;41406;-24
2023/06/07 12:19:29;;;;;;;29.90;6.55;;;;;;;;;;5075640;28;43179;-26
2023/06/07 12:22:04;;;;;;;20.20;5.57;;;;;;;;;;5061106;28;43334;-25
2023/06/07 12:24:36;;;;;;;28.83;6.43;;;;;;;;;;5059223;28;39938;-24
2023/06/07 12:27:04;;;;;;;17.58;6.03;;;;;;;;;;5060384;28;44605;-24
2023/06/07 12:29:32;;;;;;;21.02;5.38;;;;;;;;;;5069202;28;40299;-23
2023/06/07 12:32:00;;;;;;;16.85;5.90;;;;;;;;;;5067520;28;42727;-25
2023/06/07 12:34:31;;;;;;;18.55;6.32;;;;;;;;;;5067060;28;43261;-23
2023/06/07 12:36:58;;;;;;;15.48;6.03;;;;;;;;;;5059016;28;41744;-24
2023/06/07 12:39:28;;;;;;;17.60;5.50;;;;;;;;;;5062382;28;43115;-24
2023/06/07 12:41:56;;;;;;;16.65;5.57;;;;;;;;;;5062877;28;43371;-23
2023/06/07 12:44:26;;;;;;;20.63;6.30;;;;;;;;;;5060500;28;42176;-24
2023/06/07 12:46:54;;;;;;;15.75;5.93;;;;;;;;;;5064167;28;43807;-23
2023/06/07 12:49:22;;;;;;;20.52;5.60;;;;;;;;;;5063328;28;40173;-26
2023/06/07 12:51:52;;;;;;;18.75;5.82;;;;;;;;;;5061739;28;42415;-24
2023/06/07 12:54:20;;;;;;;13.82;6.00;;;;;;;;;;5056777;28;43665;-23
2023/06/07 12:56:48;;;;;;;10.30;5.00;;;;;;;;;;5072937;28;40473;-26
2023/06/07 12:59:16;;;;;;;15.23;5.60;;;;;;;;;;5053691;28;43248;-30
2023/06/07 13:01:44;;;;;;;17.75;5.72;;;;;;;;;;5054715;28;42660;-29
2023/06/07 13:04:12;;;;;;;15.77;5.72;;;;;;;;;;5061670;28;41168;-24
2023/06/07 13:06:40;;;;;;;10.15;5.28;;;;;;;;;;5060414;28;42908;-23
2023/06/07 13:09:10;;;;;;;10.90;4.57;;;;;;;;;;5056422;28;44616;-24
2023/06/07 13:11:39;;;;;;;10.32;5.07;;;;;;;;;;5061453;28;42925;-24
2023/06/07 13:14:07;;;;;;;11.43;5.25;;;;;;;;;;5048916;28;41612;-24
2023/06/07 13:16:35;;;;;;;7.65;4.47;;;;;;;;;;5051700;28;40615;-23
2023/06/07 13:19:03;;;;;;;7.47;4.78;;;;;;;;;;5057791;28;43625;-23
2023/06/07 13:21:31;;;;;;;7.35;4.70;;;;;;;;;;5057750;28;44587;-23
2023/06/07 13:23:59;;;;;;;5.78;4.57;;;;;;;;;;5066192;28;40393;-23
2023/06/07 13:26:28;;;;;;;9.20;4.90;;;;;;;;;;5071802;28;42880;-23
2023/06/07 13:28:57;;;;;;;8.40;4.68;;;;;;;;;;5070731;28;44391;-27
2023/06/07 13:31:26;;;;;;;11.73;5.20;;;;;;;;;;5066724;28;40066;-24
2023/06/07 13:33:53;;;;;;;10.57;4.90;;;;;;;;;;5068558;28;43465;-23
2023/06/07 13:36:21;;;;;;;11.25;4.82;;;;;;;;;;5077341;28;40475;-26
2023/06/07 13:38:49;;;;;;;10.55;4.53;;;;;;;;;;5067653;28;42871;-23
2023/06/07 13:41:17;;;;;;;6.25;4.57;;;;;;;;;;5069316;28;42659;-23
2023/06/07 13:43:48;;;;;;;13.80;5.25;;;;;;;;;;5062042;28;40920;-24
2023/06/07 13:46:35;;;;;;;8.18;4.25;;;;;;;;;;5071824;28;43274;-24
2023/06/07 13:49:03;;;;;;;8.93;4.85;;;;;;;;;;5062201;28;43877;-24
2023/06/07 13:51:33;;;;;;;10.38;5.13;;;;;;;;;;5070876;28;41200;-24
2023/06/07 13:54:01;;;;;;;10.30;4.90;;;;;;;;;;5065632;28;42396;-24
2023/06/07 13:56:29;;;;;;;14.27;4.78;;;;;;;;;;5070844;28;40482;-26
2023/06/07 13:58:58;;;;;;;6.25;4.65;;;;;;;;;;5067491;28;43362;-29
2023/06/07 14:01:27;;;;;;;8.65;4.75;;;;;;;;;;5068853;28;43641;-24
2023/06/07 14:03:58;;;;;;;13.93;4.65;;;;;;;;;;5072141;28;39842;-24
2023/06/07 14:06:27;;;;;;;7.53;4.45;;;;;;;;;;5078444;28;43708;-23
2023/06/07 14:08:55;;;;;;;11.05;4.88;;;;;;;;;;5067069;28;43517;-23
2023/06/07 14:11:24;;;;;;;8.43;4.78;;;;;;;;;;5057318;28;40935;-23
2023/06/07 14:13:52;;;;;;;15.30;5.07;;;;;;;;;;5070556;28;42960;-23
2023/06/07 14:16:21;;;;;;;8.43;4.68;;;;;;;;;;5067013;28;40546;-23
2023/06/07 14:18:52;;;;;;;9.20;4.65;;;;;;;;;;5069573;28;42288;-22
2023/06/07 14:21:20;;;;;;;7.65;4.32;;;;;;;;;;5058913;28;43603;-23
2023/06/07 14:23:48;;;;;;;7.10;4.85;;;;;;;;;;5065804;28;40784;-24
2023/06/07 14:26:16;;;;;;;10.07;4.80;;;;;;;;;;5059624;28;43620;-23
2023/06/07 14:28:44;;;;;;;10.40;4.60;;;;;;;;;;5062783;28;45788;-24
2023/06/07 14:31:12;;;;;;;11.25;4.68;;;;;;;;;;5072821;28;40299;-22
2023/06/07 14:33:41;;;;;;;11.07;4.85;;;;;;;;;;5072251;28;42443;-25
2023/06/07 14:36:09;;;;;;;8.52;4.50;;;;;;;;;;5075895;28;43727;-23
2023/06/07 14:38:37;;;;;;;9.27;4.95;;;;;;;;;;5057470;28;42580;-23
2023/06/07 14:41:05;;;;;;;8.82;4.40;;;;;;;;;;5057332;28;43303;-25
2023/06/07 14:43:33;;;;;;;7.78;4.53;;;;;;;;;;5063124;28;41415;-23
2023/06/07 14:46:01;;;;;;;10.40;4.40;;;;;;;;;;5062143;28;43155;-24
2023/06/07 14:48:29;;;;;;;11.90;4.78;;;;;;;;;;5058237;28;43505;-27
2023/06/07 14:50:58;;;;;;;8.80;4.85;;;;;;;;;;5067985;28;40838;-28
2023/06/07 14:53:26;;;;;;;9.30;4.50;;;;;;;;;;5059149;28;42651;-24
2023/06/07 14:55:54;;;;;;;10.30;4.57;;;;;;;;;;5054710;28;44478;-24
2023/06/07 14:58:22;;;;;;;9.10;4.40;;;;;;;;;;5043064;28;39854;-25
2023/06/07 15:00:50;;;;;;;8.75;4.47;;;;;;;;;;5063895;28;43080;-23
2023/06/07 15:03:18;;;;;;;8.40;4.60;;;;;;;;;;5066292;28;40113;-26
2023/06/07 15:05:46;;;;;;;10.45;5.40;;;;;;;;;;5055484;28;42374;-24
2023/06/07 15:08:16;;;;;;;11.00;5.57;;;;;;;;;;5058796;28;43346;-24
2023/06/07 15:10:44;;;;;;;12.05;6.13;;;;;;;;;;5073735;28;41385;-24
2023/06/07 15:13:12;;;;;;;9.57;5.00;;;;;;;;;;5058793;28;42645;-25
2023/06/07 15:15:40;;;;;;;9.68;5.38;;;;;;;;;;5058816;28;43548;-24
2023/06/07 15:18:08;;;;;;;11.15;5.13;;;;;;;;;;5055099;28;40101;-24
2023/06/07 15:20:36;;;;;;;10.07;5.30;;;;;;;;;;5060170;28;43921;-26